sensor_id;sensor_type;location;lat;lon;timestamp;pressure;altitude;pressure_sealevel;temperature;humidity
37298;BME280;30517;51.932;4.278;2023-12-20T00:00:10;101662.41;;;8.53;78.08
37298;BME280;30517;51.932;4.278;2023-12-20T00:02:51;101665.97;;;8.55;78.22
37298;BME280;30517;51.932;4.278;2023-12-20T00:05:32;101710.34;;;8.83;78.24
37298;BME280;30517;51.932;4.278;2023-12-20T00:08:13;101674.00;;;8.64;78.42
37298;BME280;30517;51.932;4.278;2023-12-20T00:10:54;101649.16;;;8.47;77.90
37298;BME280;30517;51.932;4.278;2023-12-20T00:13:35;101715.66;;;8.86;77.95
37298;BME280;30517;51.932;4.278;2023-12-20T00:16:16;101657.19;;;8.54;77.53
37298;BME280;30517;51.932;4.278;2023-12-20T00:18:57;101656.41;;;8.60;77.71
37298;BME280;30517;51.932;4.278;2023-12-20T00:21:37;101700.81;;;8.90;77.32
37298;BME280;30517;51.932;4.278;2023-12-20T00:24:18;101617.50;;;8.42;77.66
37298;BME280;30517;51.932;4.278;2023-12-20T00:27:00;101582.75;;;8.13;77.97
37298;BME280;30517;51.932;4.278;2023-12-20T00:29:41;101630.59;;;8.39;78.23
37298;BME280;30517;51.932;4.278;2023-12-20T00:32:23;101701.47;;;8.78;78.34
37298;BME280;30517;51.932;4.278;2023-12-20T00:35:04;101705.81;;;8.76;78.15
37298;BME280;30517;51.932;4.278;2023-12-20T00:37:45;101685.59;;;8.74;77.58
37298;BME280;30517;51.932;4.278;2023-12-20T00:40:26;101705.16;;;8.88;77.33
37298;BME280;30517;51.932;4.278;2023-12-20T00:43:07;101478.00;;;7.42;77.64
37298;BME280;30517;51.932;4.278;2023-12-20T00:45:51;101661.56;;;8.54;77.98
37298;BME280;30517;51.932;4.278;2023-12-20T00:48:31;101698.81;;;8.77;77.77
37298;BME280;30517;51.932;4.278;2023-12-20T00:51:12;101629.56;;;8.32;77.98
37298;BME280;30517;51.932;4.278;2023-12-20T00:53:53;101700.50;;;8.73;77.68
37298;BME280;30517;51.932;4.278;2023-12-20T00:56:35;101625.06;;;8.27;77.92
37298;BME280;30517;51.932;4.278;2023-12-20T00:59:16;101720.63;;;8.71;77.90
37298;BME280;30517;51.932;4.278;2023-12-20T01:01:58;101675.41;;;8.45;77.93
37298;BME280;30517;51.932;4.278;2023-12-20T01:04:38;101626.53;;;8.12;78.16
37298;BME280;30517;51.932;4.278;2023-12-20T01:07:19;101718.81;;;8.67;78.04
37298;BME280;30517;51.932;4.278;2023-12-20T01:10:00;101709.25;;;8.72;77.86
37298;BME280;30517;51.932;4.278;2023-12-20T01:12:41;101680.69;;;8.47;78.54
37298;BME280;30517;51.932;4.278;2023-12-20T01:15:22;101670.28;;;8.51;77.51
37298;BME280;30517;51.932;4.278;2023-12-20T01:18:03;101639.19;;;8.32;78.06
37298;BME280;30517;51.932;4.278;2023-12-20T01:20:44;101550.75;;;7.90;77.55
37298;BME280;30517;51.932;4.278;2023-12-20T01:23:25;101731.28;;;8.79;77.98
37298;BME280;30517;51.932;4.278;2023-12-20T01:26:06;101707.53;;;8.74;78.25
37298;BME280;30517;51.932;4.278;2023-12-20T01:28:47;101584.03;;;7.91;78.18
37298;BME280;30517;51.932;4.278;2023-12-20T01:31:28;101602.09;;;8.16;77.38
37298;BME280;30517;51.932;4.278;2023-12-20T01:34:09;101722.59;;;8.83;77.46
37298;BME280;30517;51.932;4.278;2023-12-20T01:36:50;101709.44;;;8.81;77.51
37298;BME280;30517;51.932;4.278;2023-12-20T01:39:34;101646.28;;;8.36;78.31
37298;BME280;30517;51.932;4.278;2023-12-20T01:42:15;101698.75;;;8.74;78.22
37298;BME280;30517;51.932;4.278;2023-12-20T01:44:55;101646.75;;;8.59;76.86
37298;BME280;30517;51.932;4.278;2023-12-20T01:47:36;101694.16;;;8.62;78.13
37298;BME280;30517;51.932;4.278;2023-12-20T01:50:27;101674.97;;;8.68;77.98
37298;BME280;30517;51.932;4.278;2023-12-20T01:53:10;101644.66;;;8.41;77.88
37298;BME280;30517;51.932;4.278;2023-12-20T01:55:52;101716.97;;;8.63;78.02
37298;BME280;30517;51.932;4.278;2023-12-20T01:58:39;101654.56;;;8.56;77.42
37298;BME280;30517;51.932;4.278;2023-12-20T02:01:22;101702.25;;;8.74;77.32
37298;BME280;30517;51.932;4.278;2023-12-20T02:04:03;101666.88;;;8.57;77.24
37298;BME280;30517;51.932;4.278;2023-12-20T02:06:46;101615.34;;;8.23;76.98
37298;BME280;30517;51.932;4.278;2023-12-20T02:09:27;101670.19;;;8.47;78.00
37298;BME280;30517;51.932;4.278;2023-12-20T02:12:08;101705.88;;;8.79;76.95
37298;BME280;30517;51.932;4.278;2023-12-20T02:14:49;101712.63;;;8.67;77.33
37298;BME280;30517;51.932;4.278;2023-12-20T02:17:31;101702.31;;;8.77;77.41
37298;BME280;30517;51.932;4.278;2023-12-20T02:20:12;101649.00;;;8.39;77.86
37298;BME280;30517;51.932;4.278;2023-12-20T02:22:56;101523.31;;;7.74;77.50
37298;BME280;30517;51.932;4.278;2023-12-20T02:25:37;101624.16;;;8.25;77.78
37298;BME280;30517;51.932;4.278;2023-12-20T02:28:18;101662.34;;;8.48;77.70
37298;BME280;30517;51.932;4.278;2023-12-20T02:30:59;101663.03;;;8.39;77.81
37298;BME280;30517;51.932;4.278;2023-12-20T02:33:40;101703.81;;;8.63;77.92
37298;BME280;30517;51.932;4.278;2023-12-20T02:36:22;101705.38;;;8.53;78.46
37298;BME280;30517;51.932;4.278;2023-12-20T02:39:03;101664.19;;;8.54;77.68
37298;BME280;30517;51.932;4.278;2023-12-20T02:41:44;101645.75;;;8.51;77.20
37298;BME280;30517;51.932;4.278;2023-12-20T02:44:25;101695.19;;;8.72;77.19
37298;BME280;30517;51.932;4.278;2023-12-20T02:47:06;101363.88;;;6.79;77.11
37298;BME280;30517;51.932;4.278;2023-12-20T02:49:47;101664.97;;;8.50;77.62
37298;BME280;30517;51.932;4.278;2023-12-20T02:52:28;101688.97;;;8.67;77.96
37298;BME280;30517;51.932;4.278;2023-12-20T02:55:09;101613.03;;;8.38;77.59
37298;BME280;30517;51.932;4.278;2023-12-20T02:57:50;101612.88;;;8.30;77.49
37298;BME280;30517;51.932;4.278;2023-12-20T03:00:31;101593.41;;;8.20;78.21
37298;BME280;30517;51.932;4.278;2023-12-20T03:03:12;101661.78;;;8.66;78.40
37298;BME280;30517;51.932;4.278;2023-12-20T03:05:53;101669.66;;;8.66;77.87
37298;BME280;30517;51.932;4.278;2023-12-20T03:08:34;101661.78;;;8.64;77.41
37298;BME280;30517;51.932;4.278;2023-12-20T03:11:15;101670.50;;;8.63;77.95
37298;BME280;30517;51.932;4.278;2023-12-20T03:13:56;101636.88;;;8.46;77.81
37298;BME280;30517;51.932;4.278;2023-12-20T03:16:37;101665.47;;;8.76;77.30
37298;BME280;30517;51.932;4.278;2023-12-20T03:19:18;101688.22;;;8.72;77.36
37298;BME280;30517;51.932;4.278;2023-12-20T03:21:59;101676.53;;;8.58;78.17
37298;BME280;30517;51.932;4.278;2023-12-20T03:24:44;101613.59;;;8.23;77.58
37298;BME280;30517;51.932;4.278;2023-12-20T03:27:25;101645.66;;;8.48;78.00
37298;BME280;30517;51.932;4.278;2023-12-20T03:30:06;101680.19;;;8.64;77.40
37298;BME280;30517;51.932;4.278;2023-12-20T03:32:47;101677.56;;;8.66;77.34
37298;BME280;30517;51.932;4.278;2023-12-20T03:35:28;101664.22;;;8.55;77.23
37298;BME280;30517;51.932;4.278;2023-12-20T03:38:08;101682.75;;;8.61;77.46
37298;BME280;30517;51.932;4.278;2023-12-20T03:40:50;101637.31;;;8.25;78.12
37298;BME280;30517;51.932;4.278;2023-12-20T03:43:31;101690.66;;;8.63;77.83
37298;BME280;30517;51.932;4.278;2023-12-20T03:46:11;101603.19;;;8.28;77.21
37298;BME280;30517;51.932;4.278;2023-12-20T03:48:52;101673.06;;;8.59;77.88
37298;BME280;30517;51.932;4.278;2023-12-20T03:51:33;101619.00;;;8.31;77.58
37298;BME280;30517;51.932;4.278;2023-12-20T03:54:14;101671.31;;;8.59;78.05
37298;BME280;30517;51.932;4.278;2023-12-20T03:56:55;101646.47;;;8.45;77.88
37298;BME280;30517;51.932;4.278;2023-12-20T03:59:37;101648.22;;;8.45;78.11
37298;BME280;30517;51.932;4.278;2023-12-20T04:02:18;101665.22;;;8.62;77.42
37298;BME280;30517;51.932;4.278;2023-12-20T04:04:59;101663.22;;;8.49;77.97
37298;BME280;30517;51.932;4.278;2023-12-20T04:07:39;101643.84;;;8.44;77.62
37298;BME280;30517;51.932;4.278;2023-12-20T04:10:20;101663.09;;;8.43;77.50
37298;BME280;30517;51.932;4.278;2023-12-20T04:13:01;101664.19;;;8.54;77.90
37298;BME280;30517;51.932;4.278;2023-12-20T04:15:42;101666.88;;;8.57;77.61
37298;BME280;30517;51.932;4.278;2023-12-20T04:18:23;101642.13;;;8.46;77.91
37298;BME280;30517;51.932;4.278;2023-12-20T04:21:04;101588.81;;;8.09;77.59
37298;BME280;30517;51.932;4.278;2023-12-20T04:23:45;101639.50;;;8.46;77.15
37298;BME280;30517;51.932;4.278;2023-12-20T04:26:25;101633.38;;;8.47;77.14
37298;BME280;30517;51.932;4.278;2023-12-20T04:29:06;101653.84;;;8.63;77.02
37298;BME280;30517;51.932;4.278;2023-12-20T04:31:47;101652.91;;;8.61;77.42
37298;BME280;30517;51.932;4.278;2023-12-20T04:34:28;101581.94;;;8.17;77.10
37298;BME280;30517;51.932;4.278;2023-12-20T04:37:09;101641.41;;;8.54;77.39
37298;BME280;30517;51.932;4.278;2023-12-20T04:39:50;101588.91;;;8.15;77.64
37298;BME280;30517;51.932;4.278;2023-12-20T04:42:31;101633.44;;;8.50;77.05
37298;BME280;30517;51.932;4.278;2023-12-20T04:45:11;101518.59;;;8.02;77.38
37298;BME280;30517;51.932;4.278;2023-12-20T04:47:55;101561.94;;;8.24;77.37
37298;BME280;30517;51.932;4.278;2023-12-20T04:50:36;101589.41;;;8.39;76.67
37298;BME280;30517;51.932;4.278;2023-12-20T04:53:17;101586.88;;;8.44;76.82
37298;BME280;30517;51.932;4.278;2023-12-20T04:55:58;101463.34;;;7.51;77.58
37298;BME280;30517;51.932;4.278;2023-12-20T04:58:39;101624.63;;;8.48;77.55
37298;BME280;30517;51.932;4.278;2023-12-20T05:01:20;101624.59;;;8.46;77.59
37298;BME280;30517;51.932;4.278;2023-12-20T05:04:01;101632.66;;;8.55;77.34
37298;BME280;30517;51.932;4.278;2023-12-20T05:06:42;101633.66;;;8.62;76.82
37298;BME280;30517;51.932;4.278;2023-12-20T05:09:23;101637.75;;;8.48;77.69
37298;BME280;30517;51.932;4.278;2023-12-20T05:12:04;101618.25;;;8.36;77.74
37298;BME280;30517;51.932;4.278;2023-12-20T05:14:46;101592.56;;;8.23;77.70
37298;BME280;30517;51.932;4.278;2023-12-20T05:17:35;101619.25;;;8.40;77.23
37298;BME280;30517;51.932;4.278;2023-12-20T05:20:18;101504.91;;;7.74;77.20
37298;BME280;30517;51.932;4.278;2023-12-20T05:22:59;101374.78;;;6.97;77.64
37298;BME280;30517;51.932;4.278;2023-12-20T05:25:40;101568.59;;;8.05;77.46
37298;BME280;30517;51.932;4.278;2023-12-20T05:28:21;101630.63;;;8.40;77.91
37298;BME280;30517;51.932;4.278;2023-12-20T05:31:02;101521.66;;;7.79;77.08
37298;BME280;30517;51.932;4.278;2023-12-20T05:33:43;101610.31;;;8.33;77.16
37298;BME280;30517;51.932;4.278;2023-12-20T05:36:24;101582.09;;;8.25;77.31
37298;BME280;30517;51.932;4.278;2023-12-20T05:39:05;101624.56;;;8.45;76.92
37298;BME280;30517;51.932;4.278;2023-12-20T05:41:46;101614.22;;;8.54;75.12
37298;BME280;30517;51.932;4.278;2023-12-20T05:44:54;101617.69;;;8.53;75.41
37298;BME280;30517;51.932;4.278;2023-12-20T05:47:35;101562.97;;;8.33;75.51
37298;BME280;30517;51.932;4.278;2023-12-20T05:50:16;101618.63;;;8.55;75.75
37298;BME280;30517;51.932;4.278;2023-12-20T05:52:56;101596.47;;;8.40;76.03
37298;BME280;30517;51.932;4.278;2023-12-20T05:55:37;101619.53;;;8.57;75.86
37298;BME280;30517;51.932;4.278;2023-12-20T05:58:18;101616.72;;;8.46;77.00
37298;BME280;30517;51.932;4.278;2023-12-20T06:00:59;101619.34;;;8.48;76.93
37298;BME280;30517;51.932;4.278;2023-12-20T06:03:43;101499.56;;;7.69;77.09
37298;BME280;30517;51.932;4.278;2023-12-20T06:06:26;101585.50;;;8.19;77.44
37298;BME280;30517;51.932;4.278;2023-12-20T06:09:06;101521.00;;;7.91;76.88
37298;BME280;30517;51.932;4.278;2023-12-20T06:11:47;101627.25;;;8.48;77.05
37298;BME280;30517;51.932;4.278;2023-12-20T06:14:28;101584.38;;;8.06;76.84
37298;BME280;30517;51.932;4.278;2023-12-20T06:17:12;101619.16;;;8.38;77.09
37298;BME280;30517;51.932;4.278;2023-12-20T06:19:53;101549.91;;;7.91;77.10
37298;BME280;30517;51.932;4.278;2023-12-20T06:22:35;101569.38;;;8.01;76.98
37298;BME280;30517;51.932;4.278;2023-12-20T06:25:16;101617.31;;;8.34;77.05
37298;BME280;30517;51.932;4.278;2023-12-20T06:27:57;101627.06;;;8.38;76.96
37298;BME280;30517;51.932;4.278;2023-12-20T06:30:38;101661.31;;;8.41;76.51
37298;BME280;30517;51.932;4.278;2023-12-20T06:33:19;101392.34;;;7.01;76.18
37298;BME280;30517;51.932;4.278;2023-12-20T06:36:02;101406.81;;;7.25;76.13
37298;BME280;30517;51.932;4.278;2023-12-20T06:38:43;101611.22;;;8.37;76.47
37298;BME280;30517;51.932;4.278;2023-12-20T06:41:24;101558.34;;;8.18;76.14
37298;BME280;30517;51.932;4.278;2023-12-20T06:44:05;101626.66;;;8.18;76.91
37298;BME280;30517;51.932;4.278;2023-12-20T06:46:46;101611.38;;;8.41;76.94
37298;BME280;30517;51.932;4.278;2023-12-20T06:49:27;101618.53;;;8.49;76.21
37298;BME280;30517;51.932;4.278;2023-12-20T06:52:08;101556.38;;;8.08;76.92
37298;BME280;30517;51.932;4.278;2023-12-20T06:54:49;101532.53;;;7.99;76.70
37298;BME280;30517;51.932;4.278;2023-12-20T06:57:33;101611.56;;;8.51;76.35
37298;BME280;30517;51.932;4.278;2023-12-20T07:00:15;101564.44;;;8.17;77.02
37298;BME280;30517;51.932;4.278;2023-12-20T07:02:56;101600.84;;;8.41;76.77
37298;BME280;30517;51.932;4.278;2023-12-20T07:05:37;101610.56;;;8.46;76.56
37298;BME280;30517;51.932;4.278;2023-12-20T07:08:19;101556.84;;;8.34;76.79
37298;BME280;30517;51.932;4.278;2023-12-20T07:11:06;101527.63;;;8.16;75.98
37298;BME280;30517;51.932;4.278;2023-12-20T07:13:47;101564.75;;;8.34;76.31
37298;BME280;30517;51.932;4.278;2023-12-20T07:16:27;101598.22;;;8.41;76.47
37298;BME280;30517;51.932;4.278;2023-12-20T07:19:17;101507.44;;;8.13;76.53
37298;BME280;30517;51.932;4.278;2023-12-20T07:21:58;101593.94;;;8.47;76.78
37298;BME280;30517;51.932;4.278;2023-12-20T07:24:44;101508.94;;;8.01;76.70
37298;BME280;30517;51.932;4.278;2023-12-20T07:27:26;101526.72;;;8.15;77.03
37298;BME280;30517;51.932;4.278;2023-12-20T07:30:08;101591.94;;;8.36;75.83
37298;BME280;30517;51.932;4.278;2023-12-20T07:32:49;101525.84;;;8.15;76.13
37298;BME280;30517;51.932;4.278;2023-12-20T07:35:30;101567.47;;;8.37;76.35
37298;BME280;30517;51.932;4.278;2023-12-20T07:38:11;101596.72;;;8.56;75.71
37298;BME280;30517;51.932;4.278;2023-12-20T07:40:52;101602.84;;;8.53;75.70
37298;BME280;30517;51.932;4.278;2023-12-20T07:43:33;101568.69;;;8.11;75.82
37298;BME280;30517;51.932;4.278;2023-12-20T07:46:14;101567.25;;;8.27;76.42
37298;BME280;30517;51.932;4.278;2023-12-20T07:48:55;101614.19;;;8.51;76.47
37298;BME280;30517;51.932;4.278;2023-12-20T07:51:35;101360.69;;;6.92;75.99
37298;BME280;30517;51.932;4.278;2023-12-20T07:54:16;101562.31;;;7.98;76.68
37298;BME280;30517;51.932;4.278;2023-12-20T07:56:57;101632.66;;;8.55;76.01
37298;BME280;30517;51.932;4.278;2023-12-20T07:59:38;101425.13;;;7.23;76.26
37298;BME280;30517;51.932;4.278;2023-12-20T08:02:19;101624.66;;;8.49;76.51
37298;BME280;30517;51.932;4.278;2023-12-20T08:05:00;101537.78;;;7.97;75.92
37298;BME280;30517;51.932;4.278;2023-12-20T08:07:41;101627.38;;;8.54;76.55
37298;BME280;30517;51.932;4.278;2023-12-20T08:10:22;101627.00;;;8.37;76.42
37298;BME280;30517;51.932;4.278;2023-12-20T08:13:03;101633.56;;;8.57;76.23
37298;BME280;30517;51.932;4.278;2023-12-20T08:15:44;101600.88;;;8.43;76.12
37298;BME280;30517;51.932;4.278;2023-12-20T08:18:25;101555.72;;;8.18;76.24
37298;BME280;30517;51.932;4.278;2023-12-20T08:21:06;101566.22;;;8.20;76.84
37298;BME280;30517;51.932;4.278;2023-12-20T08:23:53;101626.38;;;8.47;76.64
37298;BME280;30517;51.932;4.278;2023-12-20T08:26:33;101551.09;;;8.07;76.05
37298;BME280;30517;51.932;4.278;2023-12-20T08:29:14;101585.72;;;8.31;76.50
37298;BME280;30517;51.932;4.278;2023-12-20T08:31:56;101546.69;;;8.06;76.28
37298;BME280;30517;51.932;4.278;2023-12-20T08:34:37;101615.75;;;8.41;76.71
37298;BME280;30517;51.932;4.278;2023-12-20T08:37:18;101623.44;;;8.33;76.65
37298;BME280;30517;51.932;4.278;2023-12-20T08:39:59;101637.53;;;8.37;76.92
37298;BME280;30517;51.932;4.278;2023-12-20T08:42:40;101628.97;;;8.46;76.13
37298;BME280;30517;51.932;4.278;2023-12-20T08:45:21;101594.00;;;8.06;76.83
37298;BME280;30517;51.932;4.278;2023-12-20T08:48:02;101640.97;;;8.33;77.30
37298;BME280;30517;51.932;4.278;2023-12-20T08:50:43;101545.56;;;7.93;76.89
37298;BME280;30517;51.932;4.278;2023-12-20T08:53:24;101618.38;;;8.41;76.34
37298;BME280;30517;51.932;4.278;2023-12-20T08:56:05;101603.53;;;8.43;75.87
37298;BME280;30517;51.932;4.278;2023-12-20T08:58:46;101609.38;;;8.31;76.62
37298;BME280;30517;51.932;4.278;2023-12-20T09:01:27;101623.88;;;8.53;76.10
37298;BME280;30517;51.932;4.278;2023-12-20T09:04:08;101621.03;;;8.43;76.53
37298;BME280;30517;51.932;4.278;2023-12-20T09:06:49;101630.06;;;8.57;76.06
37298;BME280;30517;51.932;4.278;2023-12-20T09:09:30;101628.94;;;8.44;76.67
37298;BME280;30517;51.932;4.278;2023-12-20T09:12:12;101528.16;;;7.98;76.00
37298;BME280;30517;51.932;4.278;2023-12-20T09:14:53;101615.25;;;8.63;75.88
37298;BME280;30517;51.932;4.278;2023-12-20T09:17:34;101592.31;;;8.53;75.52
37298;BME280;30517;51.932;4.278;2023-12-20T09:20:15;101616.22;;;8.67;75.89
37298;BME280;30517;51.932;4.278;2023-12-20T09:22:55;101478.91;;;7.88;75.81
37298;BME280;30517;51.932;4.278;2023-12-20T09:25:36;101596.84;;;8.63;75.52
37298;BME280;30517;51.932;4.278;2023-12-20T09:28:17;101569.47;;;8.51;75.41
37298;BME280;30517;51.932;4.278;2023-12-20T09:30:58;101588.91;;;8.60;75.14
37298;BME280;30517;51.932;4.278;2023-12-20T09:33:39;101579.47;;;8.72;74.98
37298;BME280;30517;51.932;4.278;2023-12-20T09:36:20;101525.41;;;8.37;74.96
37298;BME280;30517;51.932;4.278;2023-12-20T09:39:00;101625.91;;;8.70;76.00
37298;BME280;30517;51.932;4.278;2023-12-20T09:41:47;101613.78;;;8.78;75.92
37298;BME280;30517;51.932;4.278;2023-12-20T09:44:31;101605.81;;;8.73;75.82
37298;BME280;30517;51.932;4.278;2023-12-20T09:47:14;101518.84;;;8.15;75.92
37298;BME280;30517;51.932;4.278;2023-12-20T09:49:59;101495.13;;;8.11;75.28
37298;BME280;30517;51.932;4.278;2023-12-20T09:52:41;101621.59;;;8.75;75.39
37298;BME280;30517;51.932;4.278;2023-12-20T09:55:25;101421.34;;;7.53;75.31
37298;BME280;30517;51.932;4.278;2023-12-20T09:58:06;101633.13;;;8.83;75.33
37298;BME280;30517;51.932;4.278;2023-12-20T10:00:48;101631.44;;;8.83;75.76
37298;BME280;30517;51.932;4.278;2023-12-20T10:03:30;101396.06;;;7.57;74.94
37298;BME280;30517;51.932;4.278;2023-12-20T10:06:12;101562.38;;;8.47;75.69
37298;BME280;30517;51.932;4.278;2023-12-20T10:08:56;101441.22;;;7.84;75.17
37298;BME280;30517;51.932;4.278;2023-12-20T10:11:37;101604.31;;;8.89;74.22
37298;BME280;30517;51.932;4.278;2023-12-20T10:14:18;101500.94;;;8.41;74.17
37298;BME280;30517;51.932;4.278;2023-12-20T10:17:03;101625.91;;;9.21;73.84
37298;BME280;30517;51.932;4.278;2023-12-20T10:19:44;101584.03;;;8.80;74.72
37298;BME280;30517;51.932;4.278;2023-12-20T10:22:26;101627.31;;;8.99;74.48
37298;BME280;30517;51.932;4.278;2023-12-20T10:25:08;101542.69;;;8.73;74.22
37298;BME280;30517;51.932;4.278;2023-12-20T10:27:50;101618.06;;;9.26;73.60
37298;BME280;30517;51.932;4.278;2023-12-20T10:30:48;101587.00;;;9.03;73.56
37298;BME280;30517;51.932;4.278;2023-12-20T10:33:32;101564.06;;;8.95;73.90
37298;BME280;30517;51.932;4.278;2023-12-20T10:36:14;101549.13;;;8.94;73.81
37298;BME280;30517;51.932;4.278;2023-12-20T10:38:56;101612.78;;;9.26;74.23
37298;BME280;30517;51.932;4.278;2023-12-20T10:41:37;101610.31;;;9.37;73.20
37298;BME280;30517;51.932;4.278;2023-12-20T10:44:21;101601.34;;;9.22;74.37
37298;BME280;30517;51.932;4.278;2023-12-20T10:47:04;101497.34;;;8.90;73.37
37298;BME280;30517;51.932;4.278;2023-12-20T10:49:45;101479.56;;;8.75;73.51
37298;BME280;30517;51.932;4.278;2023-12-20T10:52:27;101585.88;;;9.44;73.28
37298;BME280;30517;51.932;4.278;2023-12-20T10:55:10;101572.63;;;9.39;73.48
37298;BME280;30517;51.932;4.278;2023-12-20T10:57:52;101573.47;;;9.37;73.87
37298;BME280;30517;51.932;4.278;2023-12-20T11:00:37;101586.75;;;9.43;73.46
37298;BME280;30517;51.932;4.278;2023-12-20T11:03:20;101526.19;;;8.83;73.90
37298;BME280;30517;51.932;4.278;2023-12-20T11:06:33;101593.72;;;9.42;73.32
37298;BME280;30517;51.932;4.278;2023-12-20T11:09:24;101591.13;;;9.44;73.58
37298;BME280;30517;51.932;4.278;2023-12-20T11:12:26;101592.72;;;9.33;73.99
37298;BME280;30517;51.932;4.278;2023-12-20T11:15:10;101579.66;;;9.39;73.58
37298;BME280;30517;51.932;4.278;2023-12-20T11:17:55;101577.16;;;9.48;73.25
37298;BME280;30517;51.932;4.278;2023-12-20T11:20:40;101448.78;;;8.68;73.46
37298;BME280;30517;51.932;4.278;2023-12-20T11:23:22;101166.94;;;7.11;73.79
37298;BME280;30517;51.932;4.278;2023-12-20T11:26:03;101555.13;;;9.43;74.11
37298;BME280;30517;51.932;4.278;2023-12-20T11:28:44;101317.72;;;7.83;73.65
37298;BME280;30517;51.932;4.278;2023-12-20T11:31:26;101545.34;;;9.33;74.36
37298;BME280;30517;51.932;4.278;2023-12-20T11:34:13;101442.06;;;8.86;73.81
37298;BME280;30517;51.932;4.278;2023-12-20T11:36:58;101535.72;;;9.36;74.59
37298;BME280;30517;51.932;4.278;2023-12-20T11:39:40;101523.22;;;9.18;74.44
37298;BME280;30517;51.932;4.278;2023-12-20T11:42:20;101554.03;;;9.27;74.54
37298;BME280;30517;51.932;4.278;2023-12-20T11:45:02;101545.41;;;9.37;74.22
37298;BME280;30517;51.932;4.278;2023-12-20T11:47:46;101556.66;;;9.27;74.51
37298;BME280;30517;51.932;4.278;2023-12-20T11:50:28;101558.47;;;9.29;74.45
37298;BME280;30517;51.932;4.278;2023-12-20T11:53:10;101550.34;;;9.14;74.91
37298;BME280;30517;51.932;4.278;2023-12-20T11:55:51;101544.38;;;9.27;74.98
37298;BME280;30517;51.932;4.278;2023-12-20T11:58:33;101544.50;;;9.37;74.85
37298;BME280;30517;51.932;4.278;2023-12-20T12:01:14;101389.41;;;8.27;74.77
37298;BME280;30517;51.932;4.278;2023-12-20T12:04:05;101182.44;;;6.98;75.16
37298;BME280;30517;51.932;4.278;2023-12-20T12:06:46;101467.31;;;8.75;75.33
37298;BME280;30517;51.932;4.278;2023-12-20T12:09:27;101491.34;;;9.00;75.02
37298;BME280;30517;51.932;4.278;2023-12-20T12:12:08;101535.69;;;9.33;74.64
37298;BME280;30517;51.932;4.278;2023-12-20T12:14:49;101451.63;;;8.81;74.66
37298;BME280;30517;51.932;4.278;2023-12-20T12:17:30;101528.78;;;9.40;74.71
37298;BME280;30517;51.932;4.278;2023-12-20T12:20:13;101492.56;;;9.25;74.63
37298;BME280;30517;51.932;4.278;2023-12-20T12:22:58;101517.38;;;9.42;74.78
37298;BME280;30517;51.932;4.278;2023-12-20T12:25:39;101475.75;;;9.15;74.51
37298;BME280;30517;51.932;4.278;2023-12-20T12:28:20;101486.44;;;9.24;74.53
37298;BME280;30517;51.932;4.278;2023-12-20T12:31:01;101482.81;;;9.18;74.95
37298;BME280;30517;51.932;4.278;2023-12-20T12:33:42;101518.16;;;9.35;74.70
37298;BME280;30517;51.932;4.278;2023-12-20T12:36:24;101499.88;;;9.46;74.80
37298;BME280;30517;51.932;4.278;2023-12-20T12:39:05;101515.75;;;9.52;74.55
37298;BME280;30517;51.932;4.278;2023-12-20T12:41:46;101422.22;;;9.10;74.46
37298;BME280;30517;51.932;4.278;2023-12-20T12:44:27;101470.56;;;9.18;74.68
37298;BME280;30517;51.932;4.278;2023-12-20T12:47:11;101499.03;;;9.48;74.49
37298;BME280;30517;51.932;4.278;2023-12-20T12:49:52;101479.47;;;9.29;74.81
37298;BME280;30517;51.932;4.278;2023-12-20T12:52:33;101497.31;;;9.52;74.60
37298;BME280;30517;51.932;4.278;2023-12-20T12:55:15;101487.63;;;9.48;74.87
37298;BME280;30517;51.932;4.278;2023-12-20T12:57:56;101478.91;;;9.55;74.55
37298;BME280;30517;51.932;4.278;2023-12-20T13:00:37;101482.50;;;9.60;74.13
37298;BME280;30517;51.932;4.278;2023-12-20T13:03:18;101455.75;;;9.28;74.81
37298;BME280;30517;51.932;4.278;2023-12-20T13:05:58;101485.50;;;9.21;75.49
37298;BME280;30517;51.932;4.278;2023-12-20T13:08:39;101458.59;;;9.43;75.35
37298;BME280;30517;51.932;4.278;2023-12-20T13:11:20;101428.13;;;9.68;73.44
37298;BME280;30517;51.932;4.278;2023-12-20T13:14:01;101422.06;;;9.72;73.36
37298;BME280;30517;51.932;4.278;2023-12-20T13:16:44;101407.06;;;9.68;72.83
37298;BME280;30517;51.932;4.278;2023-12-20T13:19:25;101423.88;;;9.83;72.71
37298;BME280;30517;51.932;4.278;2023-12-20T13:22:06;101377.94;;;9.53;73.04
37298;BME280;30517;51.932;4.278;2023-12-20T13:24:47;101420.25;;;9.71;73.77
37298;BME280;30517;51.932;4.278;2023-12-20T13:27:28;101382.44;;;9.62;73.27
37298;BME280;30517;51.932;4.278;2023-12-20T13:30:09;101341.81;;;9.40;73.29
37298;BME280;30517;51.932;4.278;2023-12-20T13:32:50;101373.50;;;9.49;73.55
37298;BME280;30517;51.932;4.278;2023-12-20T13:35:32;101417.75;;;9.81;73.74
37298;BME280;30517;51.932;4.278;2023-12-20T13:38:13;101423.03;;;9.84;73.61
37298;BME280;30517;51.932;4.278;2023-12-20T13:40:54;101418.66;;;9.84;73.36
37298;BME280;30517;51.932;4.278;2023-12-20T13:43:35;101353.38;;;9.54;73.04
37298;BME280;30517;51.932;4.278;2023-12-20T13:46:16;101405.50;;;9.87;73.33
37298;BME280;30517;51.932;4.278;2023-12-20T13:48:57;101397.38;;;9.64;74.03
37298;BME280;30517;51.932;4.278;2023-12-20T13:51:38;101397.50;;;9.75;73.75
37298;BME280;30517;51.932;4.278;2023-12-20T13:54:19;101393.06;;;9.74;73.87
37298;BME280;30517;51.932;4.278;2023-12-20T13:57:01;101252.75;;;8.99;73.67
37298;BME280;30517;51.932;4.278;2023-12-20T13:59:43;101369.19;;;9.54;73.86
37298;BME280;30517;51.932;4.278;2023-12-20T14:02:25;101396.69;;;9.85;73.70
37298;BME280;30517;51.932;4.278;2023-12-20T14:05:10;101386.16;;;9.85;73.80
37298;BME280;30517;51.932;4.278;2023-12-20T14:07:51;101304.84;;;9.30;73.48
37298;BME280;30517;51.932;4.278;2023-12-20T14:10:32;101350.50;;;9.33;74.01
37298;BME280;30517;51.932;4.278;2023-12-20T14:13:13;101391.38;;;9.78;73.87
37298;BME280;30517;51.932;4.278;2023-12-20T14:15:54;101377.25;;;9.71;73.63